Terminal Aerodrome Forecast
Issued by NWS Pittsburgh, PA

Current Version | Previous Version | Graphics & Text | Print | Product List | Glossary On
Versions: 1 2 3 4 5 6 7 8 9 10 11 12 13 14 15 16 17 18 19 20 21 22 23 24 25 26 27 28 29
000
FTUS41 KPBZ 011134
TAFPIT
TAF
KPIT 011134Z 0112/0218 23005KT 2SM BR OVC005
      TEMPO 0112/0113 OVC004
     FM011400 24008KT P6SM BKN015
     FM011700 27010KT P6SM BKN035
     FM012000 30010KT P6SM SCT040
     FM020000 32004KT P6SM SCT250
     FM020900 VRB03KT 2SM BR SCT250
     FM021500 VRB03KT P6SM SCT030=

USA.gov is the U.S. government's official web portal to all federal, state and local government web resources and services.